sensor_id;sensor_type;location;lat;lon;timestamp;temperature;humidity
42841;DHT22;28491;46.898;7.660;2022-11-11T00:00:27;5.70;97.40
42841;DHT22;28491;46.898;7.660;2022-11-11T00:02:56;5.80;97.70
42841;DHT22;28491;46.898;7.660;2022-11-11T00:05:23;5.80;97.80
42841;DHT22;28491;46.898;7.660;2022-11-11T00:07:51;5.80;98.00
42841;DHT22;28491;46.898;7.660;2022-11-11T00:10:18;5.80;98.00
42841;DHT22;28491;46.898;7.660;2022-11-11T00:12:44;5.80;97.80
42841;DHT22;28491;46.898;7.660;2022-11-11T00:15:09;5.60;97.60
42841;DHT22;28491;46.898;7.660;2022-11-11T00:17:35;5.70;97.80
42841;DHT22;28491;46.898;7.660;2022-11-11T00:20:19;5.60;97.80
42841;DHT22;28491;46.898;7.660;2022-11-11T00:23:03;5.40;98.00
42841;DHT22;28491;46.898;7.660;2022-11-11T00:25:53;5.30;98.60
42841;DHT22;28491;46.898;7.660;2022-11-11T00:28:19;5.30;98.60
42841;DHT22;28491;46.898;7.660;2022-11-11T00:30:45;5.30;98.70
42841;DHT22;28491;46.898;7.660;2022-11-11T00:33:10;5.20;98.60
42841;DHT22;28491;46.898;7.660;2022-11-11T00:35:36;5.20;98.60
42841;DHT22;28491;46.898;7.660;2022-11-11T00:38:20;5.20;98.50
42841;DHT22;28491;46.898;7.660;2022-11-11T00:41:04;5.20;98.70
42841;DHT22;28491;46.898;7.660;2022-11-11T00:43:30;5.30;99.00
42841;DHT22;28491;46.898;7.660;2022-11-11T00:45:55;5.30;98.80
42841;DHT22;28491;46.898;7.660;2022-11-11T00:48:41;5.30;98.50
42841;DHT22;28491;46.898;7.660;2022-11-11T00:51:25;5.30;98.60
42841;DHT22;28491;46.898;7.660;2022-11-11T00:53:51;5.20;98.40
42841;DHT22;28491;46.898;7.660;2022-11-11T00:56:17;5.20;98.50
42841;DHT22;28491;46.898;7.660;2022-11-11T00:58:42;5.20;98.40
42841;DHT22;28491;46.898;7.660;2022-11-11T01:01:08;5.20;98.40
42841;DHT22;28491;46.898;7.660;2022-11-11T01:03:33;5.10;98.70
42841;DHT22;28491;46.898;7.660;2022-11-11T01:05:59;5.10;99.00
42841;DHT22;28491;46.898;7.660;2022-11-11T01:08:25;5.10;99.20
42841;DHT22;28491;46.898;7.660;2022-11-11T01:10:51;5.10;99.20
42841;DHT22;28491;46.898;7.660;2022-11-11T01:13:20;5.10;99.40
42841;DHT22;28491;46.898;7.660;2022-11-11T01:15:56;5.20;99.60
42841;DHT22;28491;46.898;7.660;2022-11-11T01:18:24;5.20;99.80
42841;DHT22;28491;46.898;7.660;2022-11-11T01:20:58;5.30;99.90
42841;DHT22;28491;46.898;7.660;2022-11-11T01:23:24;5.30;99.90
42841;DHT22;28491;46.898;7.660;2022-11-11T01:25:50;5.30;99.90
42841;DHT22;28491;46.898;7.660;2022-11-11T01:28:17;5.40;99.90
42841;DHT22;28491;46.898;7.660;2022-11-11T01:30:43;5.50;99.90
42841;DHT22;28491;46.898;7.660;2022-11-11T01:33:09;5.50;99.90
42841;DHT22;28491;46.898;7.660;2022-11-11T01:35:40;5.60;99.90
42841;DHT22;28491;46.898;7.660;2022-11-11T01:38:07;5.60;99.90
42841;DHT22;28491;46.898;7.660;2022-11-11T01:40:40;5.70;99.90
42841;DHT22;28491;46.898;7.660;2022-11-11T01:45:45;5.60;99.90
42841;DHT22;28491;46.898;7.660;2022-11-11T01:48:23;5.60;99.90
42841;DHT22;28491;46.898;7.660;2022-11-11T01:53:55;5.40;99.90
42841;DHT22;28491;46.898;7.660;2022-11-11T01:56:22;5.40;99.90
42841;DHT22;28491;46.898;7.660;2022-11-11T01:58:50;5.40;99.90
42841;DHT22;28491;46.898;7.660;2022-11-11T02:01:18;5.50;99.90
42841;DHT22;28491;46.898;7.660;2022-11-11T02:03:43;5.50;99.90
42841;DHT22;28491;46.898;7.660;2022-11-11T02:06:32;5.50;99.90
42841;DHT22;28491;46.898;7.660;2022-11-11T02:08:58;5.50;99.90
42841;DHT22;28491;46.898;7.660;2022-11-11T02:11:25;5.40;99.80
42841;DHT22;28491;46.898;7.660;2022-11-11T02:14:10;5.40;99.80
42841;DHT22;28491;46.898;7.660;2022-11-11T02:16:54;5.40;99.70
42841;DHT22;28491;46.898;7.660;2022-11-11T02:19:24;5.40;99.50
42841;DHT22;28491;46.898;7.660;2022-11-11T02:21:57;5.20;99.40
42841;DHT22;28491;46.898;7.660;2022-11-11T02:24:24;5.20;99.40
42841;DHT22;28491;46.898;7.660;2022-11-11T02:26:51;5.30;99.40
42841;DHT22;28491;46.898;7.660;2022-11-11T02:29:19;5.20;99.30
42841;DHT22;28491;46.898;7.660;2022-11-11T02:31:46;5.20;99.20
42841;DHT22;28491;46.898;7.660;2022-11-11T02:34:11;5.10;99.20
42841;DHT22;28491;46.898;7.660;2022-11-11T02:36:37;5.00;99.30
42841;DHT22;28491;46.898;7.660;2022-11-11T02:39:04;5.00;99.40
42841;DHT22;28491;46.898;7.660;2022-11-11T02:41:29;5.10;99.60
42841;DHT22;28491;46.898;7.660;2022-11-11T02:44:13;5.20;99.70
42841;DHT22;28491;46.898;7.660;2022-11-11T02:46:39;5.10;99.60
42841;DHT22;28491;46.898;7.660;2022-11-11T02:49:04;5.10;99.60
42841;DHT22;28491;46.898;7.660;2022-11-11T02:51:30;5.10;99.70
42841;DHT22;28491;46.898;7.660;2022-11-11T02:53:55;5.10;99.70
42841;DHT22;28491;46.898;7.660;2022-11-11T02:56:23;5.10;99.60
42841;DHT22;28491;46.898;7.660;2022-11-11T02:59:08;5.10;99.60
42841;DHT22;28491;46.898;7.660;2022-11-11T03:01:33;5.30;99.80
42841;DHT22;28491;46.898;7.660;2022-11-11T03:03:59;5.30;99.80
42841;DHT22;28491;46.898;7.660;2022-11-11T03:06:24;5.40;99.80
42841;DHT22;28491;46.898;7.660;2022-11-11T03:08:50;5.40;99.70
42841;DHT22;28491;46.898;7.660;2022-11-11T03:11:15;5.50;99.70
42841;DHT22;28491;46.898;7.660;2022-11-11T03:13:55;5.50;99.60
42841;DHT22;28491;46.898;7.660;2022-11-11T03:16:21;5.40;99.50
42841;DHT22;28491;46.898;7.660;2022-11-11T03:19:05;5.30;99.30
42841;DHT22;28491;46.898;7.660;2022-11-11T03:21:31;5.30;99.40
42841;DHT22;28491;46.898;7.660;2022-11-11T03:23:56;5.30;99.50
42841;DHT22;28491;46.898;7.660;2022-11-11T03:26:22;5.30;99.50
42841;DHT22;28491;46.898;7.660;2022-11-11T03:28:47;5.20;99.40
42841;DHT22;28491;46.898;7.660;2022-11-11T03:31:14;5.20;99.40
42841;DHT22;28491;46.898;7.660;2022-11-11T03:33:39;5.20;99.40
42841;DHT22;28491;46.898;7.660;2022-11-11T03:36:05;5.20;99.40
42841;DHT22;28491;46.898;7.660;2022-11-11T03:38:31;5.10;99.40
42841;DHT22;28491;46.898;7.660;2022-11-11T03:40:57;5.10;99.50
42841;DHT22;28491;46.898;7.660;2022-11-11T03:43:25;5.00;99.60
42841;DHT22;28491;46.898;7.660;2022-11-11T03:45:52;5.00;99.70
42841;DHT22;28491;46.898;7.660;2022-11-11T03:48:18;5.00;99.80
42841;DHT22;28491;46.898;7.660;2022-11-11T03:50:45;5.10;99.90
42841;DHT22;28491;46.898;7.660;2022-11-11T03:53:12;5.20;99.90
42841;DHT22;28491;46.898;7.660;2022-11-11T03:55:39;5.30;99.90
42841;DHT22;28491;46.898;7.660;2022-11-11T03:58:05;5.30;99.90
42841;DHT22;28491;46.898;7.660;2022-11-11T04:00:31;5.20;99.90
42841;DHT22;28491;46.898;7.660;2022-11-11T04:03:16;5.00;99.80
42841;DHT22;28491;46.898;7.660;2022-11-11T04:06:00;4.80;99.60
42841;DHT22;28491;46.898;7.660;2022-11-11T04:08:46;4.70;99.60
42841;DHT22;28491;46.898;7.660;2022-11-11T04:11:33;4.70;99.70
42841;DHT22;28491;46.898;7.660;2022-11-11T04:14:03;4.70;99.80
42841;DHT22;28491;46.898;7.660;2022-11-11T04:16:47;4.70;99.80
42841;DHT22;28491;46.898;7.660;2022-11-11T04:19:13;4.80;99.80
42841;DHT22;28491;46.898;7.660;2022-11-11T04:21:57;4.70;99.70
42841;DHT22;28491;46.898;7.660;2022-11-11T04:24:23;4.70;99.70
42841;DHT22;28491;46.898;7.660;2022-11-11T04:27:09;4.70;99.70
42841;DHT22;28491;46.898;7.660;2022-11-11T04:29:35;4.70;99.70
42841;DHT22;28491;46.898;7.660;2022-11-11T04:32:06;4.80;99.80
42841;DHT22;28491;46.898;7.660;2022-11-11T04:35:02;4.70;99.70
42841;DHT22;28491;46.898;7.660;2022-11-11T04:37:31;4.60;99.60
42841;DHT22;28491;46.898;7.660;2022-11-11T04:39:57;4.70;99.70
42841;DHT22;28491;46.898;7.660;2022-11-11T04:42:41;4.60;99.70
42841;DHT22;28491;46.898;7.660;2022-11-11T04:45:09;4.60;99.70
42841;DHT22;28491;46.898;7.660;2022-11-11T04:48:08;4.70;99.70
42841;DHT22;28491;46.898;7.660;2022-11-11T04:50:35;4.60;99.60
42841;DHT22;28491;46.898;7.660;2022-11-11T04:53:03;4.60;99.50
42841;DHT22;28491;46.898;7.660;2022-11-11T04:55:29;4.50;99.30
42841;DHT22;28491;46.898;7.660;2022-11-11T04:58:14;4.40;99.40
42841;DHT22;28491;46.898;7.660;2022-11-11T05:00:40;4.40;99.40
42841;DHT22;28491;46.898;7.660;2022-11-11T05:03:08;4.40;99.40
42841;DHT22;28491;46.898;7.660;2022-11-11T05:05:51;4.40;99.20
42841;DHT22;28491;46.898;7.660;2022-11-11T05:08:37;4.20;99.10
42841;DHT22;28491;46.898;7.660;2022-11-11T05:11:34;4.20;99.20
42841;DHT22;28491;46.898;7.660;2022-11-11T05:14:01;4.20;99.30
42841;DHT22;28491;46.898;7.660;2022-11-11T05:16:54;4.20;99.30
42841;DHT22;28491;46.898;7.660;2022-11-11T05:19:39;4.20;99.30
42841;DHT22;28491;46.898;7.660;2022-11-11T05:22:32;4.30;99.50
42841;DHT22;28491;46.898;7.660;2022-11-11T05:24:58;4.30;99.50
42841;DHT22;28491;46.898;7.660;2022-11-11T05:27:43;4.30;99.40
42841;DHT22;28491;46.898;7.660;2022-11-11T05:30:10;4.30;99.30
42841;DHT22;28491;46.898;7.660;2022-11-11T05:32:36;4.20;99.20
42841;DHT22;28491;46.898;7.660;2022-11-11T05:35:03;4.10;99.20
42841;DHT22;28491;46.898;7.660;2022-11-11T05:37:29;3.90;99.10
42841;DHT22;28491;46.898;7.660;2022-11-11T05:39:55;3.70;99.20
42841;DHT22;28491;46.898;7.660;2022-11-11T05:42:20;3.70;99.40
42841;DHT22;28491;46.898;7.660;2022-11-11T05:44:46;3.70;99.60
42841;DHT22;28491;46.898;7.660;2022-11-11T05:47:11;3.70;99.70
42841;DHT22;28491;46.898;7.660;2022-11-11T05:49:37;3.70;99.70
42841;DHT22;28491;46.898;7.660;2022-11-11T05:52:03;3.80;99.70
42841;DHT22;28491;46.898;7.660;2022-11-11T05:54:29;3.70;99.60
42841;DHT22;28491;46.898;7.660;2022-11-11T05:56:54;3.60;99.50
42841;DHT22;28491;46.898;7.660;2022-11-11T05:59:20;3.60;99.50
42841;DHT22;28491;46.898;7.660;2022-11-11T06:01:45;3.60;99.50
42841;DHT22;28491;46.898;7.660;2022-11-11T06:04:11;3.50;99.50
42841;DHT22;28491;46.898;7.660;2022-11-11T06:06:36;3.50;99.40
42841;DHT22;28491;46.898;7.660;2022-11-11T06:09:03;3.40;99.30
42841;DHT22;28491;46.898;7.660;2022-11-11T06:11:29;3.30;99.20
42841;DHT22;28491;46.898;7.660;2022-11-11T06:13:55;3.30;99.30
42841;DHT22;28491;46.898;7.660;2022-11-11T06:16:21;3.40;99.50
42841;DHT22;28491;46.898;7.660;2022-11-11T06:18:47;3.40;99.50
42841;DHT22;28491;46.898;7.660;2022-11-11T06:21:12;3.40;99.50
42841;DHT22;28491;46.898;7.660;2022-11-11T06:23:38;3.40;99.40
42841;DHT22;28491;46.898;7.660;2022-11-11T06:26:04;3.30;99.40
42841;DHT22;28491;46.898;7.660;2022-11-11T06:28:43;3.40;99.60
42841;DHT22;28491;46.898;7.660;2022-11-11T06:31:11;3.50;99.60
42841;DHT22;28491;46.898;7.660;2022-11-11T06:33:38;3.50;99.60
42841;DHT22;28491;46.898;7.660;2022-11-11T06:36:05;3.60;99.60
42841;DHT22;28491;46.898;7.660;2022-11-11T06:38:31;3.60;99.40
42841;DHT22;28491;46.898;7.660;2022-11-11T06:40:57;3.50;99.20
42841;DHT22;28491;46.898;7.660;2022-11-11T06:43:23;3.40;99.00
42841;DHT22;28491;46.898;7.660;2022-11-11T06:45:49;3.40;98.90
42841;DHT22;28491;46.898;7.660;2022-11-11T06:48:16;3.20;98.70
42841;DHT22;28491;46.898;7.660;2022-11-11T06:50:41;3.10;98.90
42841;DHT22;28491;46.898;7.660;2022-11-11T06:53:09;3.10;99.10
42841;DHT22;28491;46.898;7.660;2022-11-11T06:55:35;3.30;99.30
42841;DHT22;28491;46.898;7.660;2022-11-11T06:58:11;3.40;99.40
42841;DHT22;28491;46.898;7.660;2022-11-11T07:00:38;3.60;99.30
42841;DHT22;28491;46.898;7.660;2022-11-11T07:03:04;3.60;99.00
42841;DHT22;28491;46.898;7.660;2022-11-11T07:05:31;3.70;99.00
42841;DHT22;28491;46.898;7.660;2022-11-11T07:08:01;3.80;98.70
42841;DHT22;28491;46.898;7.660;2022-11-11T07:10:27;3.90;98.60
42841;DHT22;28491;46.898;7.660;2022-11-11T07:12:52;3.70;98.00
42841;DHT22;28491;46.898;7.660;2022-11-11T07:15:18;3.70;98.00
42841;DHT22;28491;46.898;7.660;2022-11-11T07:17:43;3.60;98.00
42841;DHT22;28491;46.898;7.660;2022-11-11T07:20:09;3.50;98.10
42841;DHT22;28491;46.898;7.660;2022-11-11T07:22:35;3.60;98.30
42841;DHT22;28491;46.898;7.660;2022-11-11T07:25:01;3.70;98.40
42841;DHT22;28491;46.898;7.660;2022-11-11T07:27:27;3.70;98.40
42841;DHT22;28491;46.898;7.660;2022-11-11T07:29:52;4.30;98.70
42841;DHT22;28491;46.898;7.660;2022-11-11T07:32:18;6.40;95.10
42841;DHT22;28491;46.898;7.660;2022-11-11T07:34:43;7.90;74.00
42841;DHT22;28491;46.898;7.660;2022-11-11T07:37:09;8.40;64.80
42841;DHT22;28491;46.898;7.660;2022-11-11T07:39:35;8.10;65.20
42841;DHT22;28491;46.898;7.660;2022-11-11T07:42:00;9.00;62.80
42841;DHT22;28491;46.898;7.660;2022-11-11T07:44:26;9.80;45.70
42841;DHT22;28491;46.898;7.660;2022-11-11T07:46:51;9.50;43.00
42841;DHT22;28491;46.898;7.660;2022-11-11T07:49:17;9.60;47.60
42841;DHT22;28491;46.898;7.660;2022-11-11T07:51:43;10.50;39.00
42841;DHT22;28491;46.898;7.660;2022-11-11T07:54:08;10.80;30.70
42841;DHT22;28491;46.898;7.660;2022-11-11T07:56:34;11.90;20.00
42841;DHT22;28491;46.898;7.660;2022-11-11T07:59:00;12.70;17.40
42841;DHT22;28491;46.898;7.660;2022-11-11T08:01:25;13.70;8.70
42841;DHT22;28491;46.898;7.660;2022-11-11T08:03:51;13.50;5.40
42841;DHT22;28491;46.898;7.660;2022-11-11T08:06:18;13.70;6.10
42841;DHT22;28491;46.898;7.660;2022-11-11T08:08:44;13.70;9.30
42841;DHT22;28491;46.898;7.660;2022-11-11T08:11:10;13.30;8.50
42841;DHT22;28491;46.898;7.660;2022-11-11T08:13:36;12.80;14.80
42841;DHT22;28491;46.898;7.660;2022-11-11T08:16:06;13.90;11.20
42841;DHT22;28491;46.898;7.660;2022-11-11T08:18:32;14.20;7.20
42841;DHT22;28491;46.898;7.660;2022-11-11T08:20:58;15.20;1.00
42841;DHT22;28491;46.898;7.660;2022-11-11T08:23:24;15.70;1.00
42841;DHT22;28491;46.898;7.660;2022-11-11T08:26:06;15.90;1.00
42841;DHT22;28491;46.898;7.660;2022-11-11T08:28:33;16.20;1.00
42841;DHT22;28491;46.898;7.660;2022-11-11T08:31:00;16.00;1.00
42841;DHT22;28491;46.898;7.660;2022-11-11T08:33:27;15.80;1.00
42841;DHT22;28491;46.898;7.660;2022-11-11T08:35:53;16.40;1.00
42841;DHT22;28491;46.898;7.660;2022-11-11T08:38:20;16.60;1.00
42841;DHT22;28491;46.898;7.660;2022-11-11T08:40:46;16.40;1.00
42841;DHT22;28491;46.898;7.660;2022-11-11T08:43:12;16.50;1.00
42841;DHT22;28491;46.898;7.660;2022-11-11T08:45:37;16.90;1.00
42841;DHT22;28491;46.898;7.660;2022-11-11T08:48:03;16.70;1.00
42841;DHT22;28491;46.898;7.660;2022-11-11T08:50:29;16.60;1.00
42841;DHT22;28491;46.898;7.660;2022-11-11T08:52:55;16.60;1.00
42841;DHT22;28491;46.898;7.660;2022-11-11T08:55:21;16.80;1.00
42841;DHT22;28491;46.898;7.660;2022-11-11T08:57:46;16.50;1.00
42841;DHT22;28491;46.898;7.660;2022-11-11T09:00:12;16.40;1.00
42841;DHT22;28491;46.898;7.660;2022-11-11T09:02:38;15.90;1.00
42841;DHT22;28491;46.898;7.660;2022-11-11T09:05:04;15.80;5.70
42841;DHT22;28491;46.898;7.660;2022-11-11T09:07:31;15.10;9.70
42841;DHT22;28491;46.898;7.660;2022-11-11T09:09:57;15.10;18.20
42841;DHT22;28491;46.898;7.660;2022-11-11T09:12:22;14.30;17.20
42841;DHT22;28491;46.898;7.660;2022-11-11T09:14:48;13.40;27.20
42841;DHT22;28491;46.898;7.660;2022-11-11T09:17:14;13.20;35.40
42841;DHT22;28491;46.898;7.660;2022-11-11T09:19:40;13.00;40.10
42841;DHT22;28491;46.898;7.660;2022-11-11T09:22:06;12.80;37.90
42841;DHT22;28491;46.898;7.660;2022-11-11T09:24:31;12.70;48.70
42841;DHT22;28491;46.898;7.660;2022-11-11T09:26:57;13.00;47.00
42841;DHT22;28491;46.898;7.660;2022-11-11T09:29:22;13.10;50.80
42841;DHT22;28491;46.898;7.660;2022-11-11T09:31:48;13.10;44.00
42841;DHT22;28491;46.898;7.660;2022-11-11T09:34:13;13.20;51.20
42841;DHT22;28491;46.898;7.660;2022-11-11T09:36:39;13.20;49.30
42841;DHT22;28491;46.898;7.660;2022-11-11T09:39:05;13.50;60.20
42841;DHT22;28491;46.898;7.660;2022-11-11T09:42:00;13.90;50.70
42841;DHT22;28491;46.898;7.660;2022-11-11T09:47:31;14.00;39.50
42841;DHT22;28491;46.898;7.660;2022-11-11T09:50:05;14.10;49.00
42841;DHT22;28491;46.898;7.660;2022-11-11T09:52:39;14.30;48.00
42841;DHT22;28491;46.898;7.660;2022-11-11T09:55:22;14.40;44.60
42841;DHT22;28491;46.898;7.660;2022-11-11T09:58:02;14.50;42.50
42841;DHT22;28491;46.898;7.660;2022-11-11T10:00:31;14.60;35.70
42841;DHT22;28491;46.898;7.660;2022-11-11T10:03:13;14.60;47.50
42841;DHT22;28491;46.898;7.660;2022-11-11T10:08:16;14.40;42.60
42841;DHT22;28491;46.898;7.660;2022-11-11T10:10:47;14.50;44.80
42841;DHT22;28491;46.898;7.660;2022-11-11T10:13:21;14.60;43.50
42841;DHT22;28491;46.898;7.660;2022-11-11T10:15:59;14.50;37.80
42841;DHT22;28491;46.898;7.660;2022-11-11T10:21:36;14.40;48.20
42841;DHT22;28491;46.898;7.660;2022-11-11T10:24:09;14.30;60.10
42841;DHT22;28491;46.898;7.660;2022-11-11T10:26:40;14.30;55.30
42841;DHT22;28491;46.898;7.660;2022-11-11T10:29:17;14.40;48.80
42841;DHT22;28491;46.898;7.660;2022-11-11T10:31:45;14.50;51.60
42841;DHT22;28491;46.898;7.660;2022-11-11T10:34:14;14.70;31.60
42841;DHT22;28491;46.898;7.660;2022-11-11T10:36:52;14.60;43.90
42841;DHT22;28491;46.898;7.660;2022-11-11T10:39:49;14.70;32.30
42841;DHT22;28491;46.898;7.660;2022-11-11T10:42:17;14.90;36.30
42841;DHT22;28491;46.898;7.660;2022-11-11T10:44:43;14.80;50.90
42841;DHT22;28491;46.898;7.660;2022-11-11T10:50:27;14.80;45.50
42841;DHT22;28491;46.898;7.660;2022-11-11T10:53:18;15.00;51.40
42841;DHT22;28491;46.898;7.660;2022-11-11T10:58:47;15.10;38.00
42841;DHT22;28491;46.898;7.660;2022-11-11T11:01:19;15.10;31.20
42841;DHT22;28491;46.898;7.660;2022-11-11T11:03:49;15.10;39.60
42841;DHT22;28491;46.898;7.660;2022-11-11T11:06:23;14.80;37.50
42841;DHT22;28491;46.898;7.660;2022-11-11T11:11:37;14.90;38.40
42841;DHT22;28491;46.898;7.660;2022-11-11T11:14:14;15.00;51.80
42841;DHT22;28491;46.898;7.660;2022-11-11T11:16:46;15.20;39.30
42841;DHT22;28491;46.898;7.660;2022-11-11T11:19:25;15.00;33.80
42841;DHT22;28491;46.898;7.660;2022-11-11T11:21:55;15.10;33.80
42841;DHT22;28491;46.898;7.660;2022-11-11T11:24:27;15.10;33.30
42841;DHT22;28491;46.898;7.660;2022-11-11T11:26:57;15.00;37.10
42841;DHT22;28491;46.898;7.660;2022-11-11T11:29:30;15.20;35.50
42841;DHT22;28491;46.898;7.660;2022-11-11T11:32:18;15.40;39.60
42841;DHT22;28491;46.898;7.660;2022-11-11T11:34:51;15.30;31.80
42841;DHT22;28491;46.898;7.660;2022-11-11T11:37:19;15.20;28.60
42841;DHT22;28491;46.898;7.660;2022-11-11T11:39:45;15.30;34.30
42841;DHT22;28491;46.898;7.660;2022-11-11T11:42:33;15.20;27.90
42841;DHT22;28491;46.898;7.660;2022-11-11T11:55:34;15.30;27.60
42841;DHT22;28491;46.898;7.660;2022-11-11T11:58:54;15.20;20.80
42841;DHT22;28491;46.898;7.660;2022-11-11T12:01:18;15.20;27.60
42841;DHT22;28491;46.898;7.660;2022-11-11T12:04:12;15.20;29.00
42841;DHT22;28491;46.898;7.660;2022-11-11T12:06:50;15.30;26.10
42841;DHT22;28491;46.898;7.660;2022-11-11T12:14:47;14.70;36.30
42841;DHT22;28491;46.898;7.660;2022-11-11T12:17:25;14.70;30.40
42841;DHT22;28491;46.898;7.660;2022-11-11T12:30:19;14.40;39.60
42841;DHT22;28491;46.898;7.660;2022-11-11T12:35:48;14.40;34.40
42841;DHT22;28491;46.898;7.660;2022-11-11T12:40:58;14.40;32.70
42841;DHT22;28491;46.898;7.660;2022-11-11T12:43:49;14.40;27.60
42841;DHT22;28491;46.898;7.660;2022-11-11T12:46:45;14.40;35.50
42841;DHT22;28491;46.898;7.660;2022-11-11T12:52:46;14.30;33.80
42841;DHT22;28491;46.898;7.660;2022-11-11T13:30:56;14.10;45.50
42841;DHT22;28491;46.898;7.660;2022-11-11T13:33:34;14.00;48.80
42841;DHT22;28491;46.898;7.660;2022-11-11T13:36:02;14.00;50.40
42841;DHT22;28491;46.898;7.660;2022-11-11T13:38:37;14.00;44.60
42841;DHT22;28491;46.898;7.660;2022-11-11T13:41:05;13.90;49.00
42841;DHT22;28491;46.898;7.660;2022-11-11T13:43:33;13.90;49.90
42841;DHT22;28491;46.898;7.660;2022-11-11T13:46:02;13.80;46.30
42841;DHT22;28491;46.898;7.660;2022-11-11T13:48:34;13.80;56.20
42841;DHT22;28491;46.898;7.660;2022-11-11T13:54:05;13.90;51.30
42841;DHT22;28491;46.898;7.660;2022-11-11T13:56:42;13.90;56.10
42841;DHT22;28491;46.898;7.660;2022-11-11T13:59:39;13.80;58.00
42841;DHT22;28491;46.898;7.660;2022-11-11T14:02:25;13.70;58.40
42841;DHT22;28491;46.898;7.660;2022-11-11T14:13:37;13.60;60.40
42841;DHT22;28491;46.898;7.660;2022-11-11T14:15:46;13.40;61.10
42841;DHT22;28491;46.898;7.660;2022-11-11T14:20:50;13.40;61.80
42841;DHT22;28491;46.898;7.660;2022-11-11T14:25:49;13.20;61.20
42841;DHT22;28491;46.898;7.660;2022-11-11T14:28:29;13.10;61.50
42841;DHT22;28491;46.898;7.660;2022-11-11T14:31:00;13.00;62.00
42841;DHT22;28491;46.898;7.660;2022-11-11T14:34:04;12.90;62.80
42841;DHT22;28491;46.898;7.660;2022-11-11T14:36:51;12.90;61.70
42841;DHT22;28491;46.898;7.660;2022-11-11T14:42:02;12.80;63.60
42841;DHT22;28491;46.898;7.660;2022-11-11T14:52:21;12.60;66.30
42841;DHT22;28491;46.898;7.660;2022-11-11T14:57:49;12.40;66.70
42841;DHT22;28491;46.898;7.660;2022-11-11T15:00:26;12.50;67.20
42841;DHT22;28491;46.898;7.660;2022-11-11T15:02:53;12.40;67.90
42841;DHT22;28491;46.898;7.660;2022-11-11T15:08:24;12.20;69.20
42841;DHT22;28491;46.898;7.660;2022-11-11T15:18:53;11.80;70.10
42841;DHT22;28491;46.898;7.660;2022-11-11T15:24:43;11.50;71.30
42841;DHT22;28491;46.898;7.660;2022-11-11T15:30:15;11.30;70.70
42841;DHT22;28491;46.898;7.660;2022-11-11T15:33:14;11.30;70.90
42841;DHT22;28491;46.898;7.660;2022-11-11T15:35:49;11.20;71.20
42841;DHT22;28491;46.898;7.660;2022-11-11T15:38:17;11.10;72.40
42841;DHT22;28491;46.898;7.660;2022-11-11T15:40:47;11.10;73.40
42841;DHT22;28491;46.898;7.660;2022-11-11T15:43:25;11.00;73.60
42841;DHT22;28491;46.898;7.660;2022-11-11T15:45:54;10.90;74.70
42841;DHT22;28491;46.898;7.660;2022-11-11T15:48:23;10.90;73.80
42841;DHT22;28491;46.898;7.660;2022-11-11T15:50:50;10.80;75.50
42841;DHT22;28491;46.898;7.660;2022-11-11T15:53:22;10.70;75.20
42841;DHT22;28491;46.898;7.660;2022-11-11T15:55:52;10.70;75.30
42841;DHT22;28491;46.898;7.660;2022-11-11T15:58:26;10.60;75.20
42841;DHT22;28491;46.898;7.660;2022-11-11T16:00:53;10.40;75.60
42841;DHT22;28491;46.898;7.660;2022-11-11T16:05:59;10.20;77.50
42841;DHT22;28491;46.898;7.660;2022-11-11T16:08:24;10.20;77.20
42841;DHT22;28491;46.898;7.660;2022-11-11T16:10:58;10.20;76.10
42841;DHT22;28491;46.898;7.660;2022-11-11T16:13:36;10.00;76.50
42841;DHT22;28491;46.898;7.660;2022-11-11T16:16:12;9.90;78.20
42841;DHT22;28491;46.898;7.660;2022-11-11T16:18:47;9.80;79.10
42841;DHT22;28491;46.898;7.660;2022-11-11T16:23:48;9.70;83.60
42841;DHT22;28491;46.898;7.660;2022-11-11T16:26:15;9.60;84.90
42841;DHT22;28491;46.898;7.660;2022-11-11T16:28:47;9.50;84.40
42841;DHT22;28491;46.898;7.660;2022-11-11T16:31:35;9.40;83.90
42841;DHT22;28491;46.898;7.660;2022-11-11T16:37:02;9.20;87.70
42841;DHT22;28491;46.898;7.660;2022-11-11T16:39:29;9.10;88.70
42841;DHT22;28491;46.898;7.660;2022-11-11T16:42:00;9.10;90.30
42841;DHT22;28491;46.898;7.660;2022-11-11T16:47:06;9.20;90.20
42841;DHT22;28491;46.898;7.660;2022-11-11T16:52:54;8.90;86.50
42841;DHT22;28491;46.898;7.660;2022-11-11T16:55:43;8.70;89.40
42841;DHT22;28491;46.898;7.660;2022-11-11T16:58:19;8.60;92.00
42841;DHT22;28491;46.898;7.660;2022-11-11T17:00:45;8.60;94.30
42841;DHT22;28491;46.898;7.660;2022-11-11T17:03:20;8.50;94.60
42841;DHT22;28491;46.898;7.660;2022-11-11T17:05:53;8.60;96.50
42841;DHT22;28491;46.898;7.660;2022-11-11T17:08:43;8.50;96.50
42841;DHT22;28491;46.898;7.660;2022-11-11T17:11:11;8.50;96.60
42841;DHT22;28491;46.898;7.660;2022-11-11T17:13:56;8.40;95.90
42841;DHT22;28491;46.898;7.660;2022-11-11T17:16:21;8.40;96.30
42841;DHT22;28491;46.898;7.660;2022-11-11T17:18:47;8.30;96.20
42841;DHT22;28491;46.898;7.660;2022-11-11T17:21:12;8.30;97.50
42841;DHT22;28491;46.898;7.660;2022-11-11T17:23:38;8.30;97.40
42841;DHT22;28491;46.898;7.660;2022-11-11T17:26:03;8.30;97.00
42841;DHT22;28491;46.898;7.660;2022-11-11T17:28:31;8.20;96.50
42841;DHT22;28491;46.898;7.660;2022-11-11T17:31:02;8.20;96.70
42841;DHT22;28491;46.898;7.660;2022-11-11T17:33:27;8.20;96.60
42841;DHT22;28491;46.898;7.660;2022-11-11T17:35:53;8.30;96.10
42841;DHT22;28491;46.898;7.660;2022-11-11T17:38:19;8.30;95.60
42841;DHT22;28491;46.898;7.660;2022-11-11T17:40:46;8.40;95.10
42841;DHT22;28491;46.898;7.660;2022-11-11T17:43:12;8.40;95.50
42841;DHT22;28491;46.898;7.660;2022-11-11T17:45:37;8.30;95.10
42841;DHT22;28491;46.898;7.660;2022-11-11T17:48:03;8.20;95.70
42841;DHT22;28491;46.898;7.660;2022-11-11T17:50:29;8.10;95.90
42841;DHT22;28491;46.898;7.660;2022-11-11T17:52:55;8.00;95.20
42841;DHT22;28491;46.898;7.660;2022-11-11T17:55:21;7.90;95.30
42841;DHT22;28491;46.898;7.660;2022-11-11T17:57:47;7.80;95.50
42841;DHT22;28491;46.898;7.660;2022-11-11T18:00:13;7.80;96.10
42841;DHT22;28491;46.898;7.660;2022-11-11T18:02:39;7.80;96.80
42841;DHT22;28491;46.898;7.660;2022-11-11T18:05:04;8.00;97.10
42841;DHT22;28491;46.898;7.660;2022-11-11T18:07:30;8.00;95.80
42841;DHT22;28491;46.898;7.660;2022-11-11T18:09:55;8.10;95.50
42841;DHT22;28491;46.898;7.660;2022-11-11T18:12:21;8.00;95.20
42841;DHT22;28491;46.898;7.660;2022-11-11T18:14:47;8.00;94.90
42841;DHT22;28491;46.898;7.660;2022-11-11T18:17:12;7.90;95.10
42841;DHT22;28491;46.898;7.660;2022-11-11T18:19:38;7.90;95.10
42841;DHT22;28491;46.898;7.660;2022-11-11T18:22:03;7.80;94.80
42841;DHT22;28491;46.898;7.660;2022-11-11T18:24:29;7.80;95.10
42841;DHT22;28491;46.898;7.660;2022-11-11T18:26:54;7.60;96.10
42841;DHT22;28491;46.898;7.660;2022-11-11T18:29:20;7.60;96.30
42841;DHT22;28491;46.898;7.660;2022-11-11T18:31:45;7.60;96.80
42841;DHT22;28491;46.898;7.660;2022-11-11T18:34:11;7.60;96.60
42841;DHT22;28491;46.898;7.660;2022-11-11T18:36:36;7.70;96.90
42841;DHT22;28491;46.898;7.660;2022-11-11T18:39:02;7.70;96.60